sensor_id;sensor_type;location;lat;lon;timestamp;P1;durP1;ratioP1;P2;durP2;ratioP2
36377;SDS011;22402;42.746;23.606;2023-05-21T00:01:37;9.60;;;7.93;;
36377;SDS011;22402;42.746;23.606;2023-05-21T00:04:03;9.50;;;7.50;;
36377;SDS011;22402;42.746;23.606;2023-05-21T00:06:35;11.70;;;8.00;;
36377;SDS011;22402;42.746;23.606;2023-05-21T00:09:01;10.37;;;8.50;;
36377;SDS011;22402;42.746;23.606;2023-05-21T00:11:28;9.47;;;8.30;;
36377;SDS011;22402;42.746;23.606;2023-05-21T00:13:53;12.40;;;7.80;;
36377;SDS011;22402;42.746;23.606;2023-05-21T00:16:18;10.40;;;7.20;;
36377;SDS011;22402;42.746;23.606;2023-05-21T00:18:44;8.57;;;7.67;;
36377;SDS011;22402;42.746;23.606;2023-05-21T00:21:10;10.87;;;7.77;;
36377;SDS011;22402;42.746;23.606;2023-05-21T00:23:36;13.83;;;8.33;;
36377;SDS011;22402;42.746;23.606;2023-05-21T00:26:03;9.70;;;7.03;;
36377;SDS011;22402;42.746;23.606;2023-05-21T00:28:29;13.33;;;7.57;;
36377;SDS011;22402;42.746;23.606;2023-05-21T00:30:54;8.60;;;7.40;;
36377;SDS011;22402;42.746;23.606;2023-05-21T00:33:20;9.50;;;8.37;;
36377;SDS011;22402;42.746;23.606;2023-05-21T00:35:45;9.60;;;8.60;;
36377;SDS011;22402;42.746;23.606;2023-05-21T00:38:11;12.77;;;8.10;;
36377;SDS011;22402;42.746;23.606;2023-05-21T00:40:38;11.70;;;7.60;;
36377;SDS011;22402;42.746;23.606;2023-05-21T00:43:05;9.10;;;6.97;;
36377;SDS011;22402;42.746;23.606;2023-05-21T00:45:32;12.83;;;9.20;;
36377;SDS011;22402;42.746;23.606;2023-05-21T00:48:00;8.37;;;7.47;;
36377;SDS011;22402;42.746;23.606;2023-05-21T00:50:28;10.03;;;8.50;;
36377;SDS011;22402;42.746;23.606;2023-05-21T00:52:54;11.40;;;7.93;;
36377;SDS011;22402;42.746;23.606;2023-05-21T00:55:20;12.50;;;8.60;;
36377;SDS011;22402;42.746;23.606;2023-05-21T00:57:45;8.93;;;7.87;;
36377;SDS011;22402;42.746;23.606;2023-05-21T01:00:12;13.53;;;6.90;;
36377;SDS011;22402;42.746;23.606;2023-05-21T01:02:38;10.43;;;7.93;;
36377;SDS011;22402;42.746;23.606;2023-05-21T01:05:04;9.27;;;8.30;;
36377;SDS011;22402;42.746;23.606;2023-05-21T01:07:31;8.60;;;7.30;;
36377;SDS011;22402;42.746;23.606;2023-05-21T01:09:59;9.50;;;7.80;;
36377;SDS011;22402;42.746;23.606;2023-05-21T01:12:26;7.33;;;6.57;;
36377;SDS011;22402;42.746;23.606;2023-05-21T01:14:55;18.03;;;6.73;;
36377;SDS011;22402;42.746;23.606;2023-05-21T01:17:23;9.10;;;6.90;;
36377;SDS011;22402;42.746;23.606;2023-05-21T01:19:49;8.67;;;6.23;;
36377;SDS011;22402;42.746;23.606;2023-05-21T01:22:16;17.13;;;6.60;;
36377;SDS011;22402;42.746;23.606;2023-05-21T01:24:48;11.90;;;7.40;;
36377;SDS011;22402;42.746;23.606;2023-05-21T01:27:14;9.17;;;6.80;;
36377;SDS011;22402;42.746;23.606;2023-05-21T01:29:39;10.10;;;6.23;;
36377;SDS011;22402;42.746;23.606;2023-05-21T01:34:48;8.20;;;5.80;;
36377;SDS011;22402;42.746;23.606;2023-05-21T01:37:30;8.83;;;6.27;;
36377;SDS011;22402;42.746;23.606;2023-05-21T01:40:22;7.33;;;6.17;;
36377;SDS011;22402;42.746;23.606;2023-05-21T01:42:47;7.63;;;5.97;;
36377;SDS011;22402;42.746;23.606;2023-05-21T01:45:16;17.37;;;6.50;;
36377;SDS011;22402;42.746;23.606;2023-05-21T01:47:44;13.40;;;6.47;;
36377;SDS011;22402;42.746;23.606;2023-05-21T01:50:12;6.50;;;5.80;;
36377;SDS011;22402;42.746;23.606;2023-05-21T01:52:38;13.77;;;6.90;;
36377;SDS011;22402;42.746;23.606;2023-05-21T01:55:12;8.83;;;5.93;;
36377;SDS011;22402;42.746;23.606;2023-05-21T01:57:37;10.43;;;6.97;;
36377;SDS011;22402;42.746;23.606;2023-05-21T02:00:03;8.83;;;5.90;;
36377;SDS011;22402;42.746;23.606;2023-05-21T02:02:29;8.90;;;5.70;;
36377;SDS011;22402;42.746;23.606;2023-05-21T02:04:54;10.80;;;5.47;;
36377;SDS011;22402;42.746;23.606;2023-05-21T02:07:20;8.00;;;5.30;;
36377;SDS011;22402;42.746;23.606;2023-05-21T02:09:46;9.40;;;6.30;;
36377;SDS011;22402;42.746;23.606;2023-05-21T02:12:12;9.90;;;5.93;;
36377;SDS011;22402;42.746;23.606;2023-05-21T02:14:37;7.33;;;5.67;;
36377;SDS011;22402;42.746;23.606;2023-05-21T02:17:03;9.67;;;6.53;;
36377;SDS011;22402;42.746;23.606;2023-05-21T02:19:28;6.87;;;5.40;;
36377;SDS011;22402;42.746;23.606;2023-05-21T02:21:54;10.37;;;5.67;;
36377;SDS011;22402;42.746;23.606;2023-05-21T02:24:20;14.00;;;9.30;;
36377;SDS011;22402;42.746;23.606;2023-05-21T02:26:46;18.40;;;11.87;;
36377;SDS011;22402;42.746;23.606;2023-05-21T02:29:13;17.03;;;11.10;;
36377;SDS011;22402;42.746;23.606;2023-05-21T02:31:39;14.80;;;9.40;;
36377;SDS011;22402;42.746;23.606;2023-05-21T02:34:04;14.83;;;9.00;;
36377;SDS011;22402;42.746;23.606;2023-05-21T02:36:31;12.93;;;7.50;;
36377;SDS011;22402;42.746;23.606;2023-05-21T02:38:57;9.37;;;7.60;;
36377;SDS011;22402;42.746;23.606;2023-05-21T02:41:22;9.90;;;7.17;;
36377;SDS011;22402;42.746;23.606;2023-05-21T02:43:48;13.40;;;7.80;;
36377;SDS011;22402;42.746;23.606;2023-05-21T02:54:12;13.47;;;9.43;;
36377;SDS011;22402;42.746;23.606;2023-05-21T02:56:37;13.47;;;9.37;;
36377;SDS011;22402;42.746;23.606;2023-05-21T02:59:02;13.93;;;9.47;;
36377;SDS011;22402;42.746;23.606;2023-05-21T03:01:28;9.13;;;7.63;;
36377;SDS011;22402;42.746;23.606;2023-05-21T03:03:54;11.50;;;9.80;;
36377;SDS011;22402;42.746;23.606;2023-05-21T03:06:19;12.77;;;9.57;;
36377;SDS011;22402;42.746;23.606;2023-05-21T03:08:44;13.37;;;9.73;;
36377;SDS011;22402;42.746;23.606;2023-05-21T03:11:10;9.70;;;8.70;;
36377;SDS011;22402;42.746;23.606;2023-05-21T03:13:35;11.97;;;9.80;;
36377;SDS011;22402;42.746;23.606;2023-05-21T03:16:01;13.03;;;8.90;;
36377;SDS011;22402;42.746;23.606;2023-05-21T03:18:26;15.40;;;9.13;;
36377;SDS011;22402;42.746;23.606;2023-05-21T03:20:52;11.53;;;9.30;;
36377;SDS011;22402;42.746;23.606;2023-05-21T03:23:18;13.30;;;9.43;;
36377;SDS011;22402;42.746;23.606;2023-05-21T03:25:43;9.87;;;8.60;;
36377;SDS011;22402;42.746;23.606;2023-05-21T03:28:10;11.70;;;9.30;;
36377;SDS011;22402;42.746;23.606;2023-05-21T03:30:35;11.73;;;9.10;;
36377;SDS011;22402;42.746;23.606;2023-05-21T03:33:02;11.40;;;8.60;;
36377;SDS011;22402;42.746;23.606;2023-05-21T03:35:28;13.23;;;7.90;;
36377;SDS011;22402;42.746;23.606;2023-05-21T03:37:54;11.30;;;8.33;;
36377;SDS011;22402;42.746;23.606;2023-05-21T03:40:20;9.03;;;8.07;;
36377;SDS011;22402;42.746;23.606;2023-05-21T03:42:46;11.07;;;8.13;;
36377;SDS011;22402;42.746;23.606;2023-05-21T03:45:11;11.40;;;8.13;;
36377;SDS011;22402;42.746;23.606;2023-05-21T03:47:37;10.63;;;8.20;;
36377;SDS011;22402;42.746;23.606;2023-05-21T03:50:02;8.97;;;8.07;;
36377;SDS011;22402;42.746;23.606;2023-05-21T03:52:29;19.27;;;13.10;;
36377;SDS011;22402;42.746;23.606;2023-05-21T03:54:55;28.03;;;16.80;;
36377;SDS011;22402;42.746;23.606;2023-05-21T03:57:20;19.37;;;13.50;;
36377;SDS011;22402;42.746;23.606;2023-05-21T03:59:46;19.00;;;11.40;;
36377;SDS011;22402;42.746;23.606;2023-05-21T04:02:11;13.30;;;9.30;;
36377;SDS011;22402;42.746;23.606;2023-05-21T04:04:37;15.87;;;9.50;;
36377;SDS011;22402;42.746;23.606;2023-05-21T04:07:02;12.03;;;8.70;;
36377;SDS011;22402;42.746;23.606;2023-05-21T04:09:28;10.30;;;7.80;;
36377;SDS011;22402;42.746;23.606;2023-05-21T04:11:54;11.70;;;7.90;;
36377;SDS011;22402;42.746;23.606;2023-05-21T04:14:20;11.50;;;7.50;;
36377;SDS011;22402;42.746;23.606;2023-05-21T04:16:47;18.50;;;8.50;;
36377;SDS011;22402;42.746;23.606;2023-05-21T04:19:13;12.10;;;8.30;;
36377;SDS011;22402;42.746;23.606;2023-05-21T04:21:39;18.03;;;8.93;;
36377;SDS011;22402;42.746;23.606;2023-05-21T04:24:04;11.60;;;8.80;;
36377;SDS011;22402;42.746;23.606;2023-05-21T04:26:30;12.50;;;9.13;;
36377;SDS011;22402;42.746;23.606;2023-05-21T04:28:58;9.80;;;7.90;;
36377;SDS011;22402;42.746;23.606;2023-05-21T04:31:23;10.03;;;8.53;;
36377;SDS011;22402;42.746;23.606;2023-05-21T04:33:49;11.60;;;8.87;;
36377;SDS011;22402;42.746;23.606;2023-05-21T04:36:14;13.00;;;9.60;;
36377;SDS011;22402;42.746;23.606;2023-05-21T04:38:41;12.50;;;9.43;;
36377;SDS011;22402;42.746;23.606;2023-05-21T04:41:06;14.40;;;9.13;;
36377;SDS011;22402;42.746;23.606;2023-05-21T04:43:38;10.90;;;8.47;;
36377;SDS011;22402;42.746;23.606;2023-05-21T04:46:08;10.63;;;8.10;;
36377;SDS011;22402;42.746;23.606;2023-05-21T04:48:33;8.67;;;7.33;;
36377;SDS011;22402;42.746;23.606;2023-05-21T04:50:58;11.03;;;7.87;;
36377;SDS011;22402;42.746;23.606;2023-05-21T04:53:24;9.20;;;6.37;;
36377;SDS011;22402;42.746;23.606;2023-05-21T04:55:50;10.27;;;7.07;;
36377;SDS011;22402;42.746;23.606;2023-05-21T04:58:15;11.37;;;7.00;;
36377;SDS011;22402;42.746;23.606;2023-05-21T05:00:43;9.70;;;8.53;;
36377;SDS011;22402;42.746;23.606;2023-05-21T05:03:10;13.17;;;8.80;;
36377;SDS011;22402;42.746;23.606;2023-05-21T05:05:36;12.67;;;9.03;;
36377;SDS011;22402;42.746;23.606;2023-05-21T05:08:02;11.10;;;8.53;;
36377;SDS011;22402;42.746;23.606;2023-05-21T05:10:28;11.83;;;8.47;;
36377;SDS011;22402;42.746;23.606;2023-05-21T05:12:53;12.47;;;7.60;;
36377;SDS011;22402;42.746;23.606;2023-05-21T05:15:19;8.97;;;8.03;;
36377;SDS011;22402;42.746;23.606;2023-05-21T05:17:44;12.50;;;8.00;;
36377;SDS011;22402;42.746;23.606;2023-05-21T05:20:12;16.77;;;7.90;;
36377;SDS011;22402;42.746;23.606;2023-05-21T05:22:37;8.63;;;6.90;;
36377;SDS011;22402;42.746;23.606;2023-05-21T05:25:03;13.60;;;6.97;;
36377;SDS011;22402;42.746;23.606;2023-05-21T05:27:29;9.03;;;6.27;;
36377;SDS011;22402;42.746;23.606;2023-05-21T05:29:54;8.07;;;5.87;;
36377;SDS011;22402;42.746;23.606;2023-05-21T05:32:20;9.07;;;5.30;;
36377;SDS011;22402;42.746;23.606;2023-05-21T05:34:45;6.10;;;5.50;;
36377;SDS011;22402;42.746;23.606;2023-05-21T05:37:11;6.63;;;5.13;;
36377;SDS011;22402;42.746;23.606;2023-05-21T05:39:36;7.27;;;4.93;;
36377;SDS011;22402;42.746;23.606;2023-05-21T05:42:02;8.13;;;5.27;;
36377;SDS011;22402;42.746;23.606;2023-05-21T05:44:27;7.23;;;5.20;;
36377;SDS011;22402;42.746;23.606;2023-05-21T05:46:53;5.53;;;4.80;;
36377;SDS011;22402;42.746;23.606;2023-05-21T05:49:18;9.60;;;5.50;;
36377;SDS011;22402;42.746;23.606;2023-05-21T05:51:44;5.40;;;4.90;;
36377;SDS011;22402;42.746;23.606;2023-05-21T05:54:09;7.20;;;5.40;;
36377;SDS011;22402;42.746;23.606;2023-05-21T05:56:35;7.57;;;5.17;;
36377;SDS011;22402;42.746;23.606;2023-05-21T05:59:01;7.23;;;5.03;;
36377;SDS011;22402;42.746;23.606;2023-05-21T06:01:26;13.03;;;5.70;;
36377;SDS011;22402;42.746;23.606;2023-05-21T06:03:52;6.67;;;4.90;;
36377;SDS011;22402;42.746;23.606;2023-05-21T06:06:17;6.20;;;5.27;;
36377;SDS011;22402;42.746;23.606;2023-05-21T06:08:43;11.20;;;5.53;;
36377;SDS011;22402;42.746;23.606;2023-05-21T06:11:08;7.90;;;4.70;;
36377;SDS011;22402;42.746;23.606;2023-05-21T06:13:35;11.77;;;5.63;;
36377;SDS011;22402;42.746;23.606;2023-05-21T06:16:01;12.23;;;6.40;;
36377;SDS011;22402;42.746;23.606;2023-05-21T06:18:27;8.77;;;5.40;;
36377;SDS011;22402;42.746;23.606;2023-05-21T06:20:53;6.50;;;5.33;;
36377;SDS011;22402;42.746;23.606;2023-05-21T06:23:18;15.07;;;6.23;;
36377;SDS011;22402;42.746;23.606;2023-05-21T06:25:45;6.33;;;4.80;;
36377;SDS011;22402;42.746;23.606;2023-05-21T06:28:10;8.47;;;5.00;;
36377;SDS011;22402;42.746;23.606;2023-05-21T06:30:36;9.17;;;4.70;;
36377;SDS011;22402;42.746;23.606;2023-05-21T06:33:01;6.70;;;4.70;;
36377;SDS011;22402;42.746;23.606;2023-05-21T06:35:27;14.27;;;6.57;;
36377;SDS011;22402;42.746;23.606;2023-05-21T06:37:52;9.87;;;6.83;;
36377;SDS011;22402;42.746;23.606;2023-05-21T06:40:17;7.57;;;5.30;;
36377;SDS011;22402;42.746;23.606;2023-05-21T06:42:43;8.40;;;5.20;;
36377;SDS011;22402;42.746;23.606;2023-05-21T06:45:08;16.93;;;5.70;;
36377;SDS011;22402;42.746;23.606;2023-05-21T06:47:34;17.20;;;5.63;;
36377;SDS011;22402;42.746;23.606;2023-05-21T06:50:00;6.30;;;4.90;;
36377;SDS011;22402;42.746;23.606;2023-05-21T06:52:25;10.07;;;4.90;;
36377;SDS011;22402;42.746;23.606;2023-05-21T06:54:51;6.83;;;5.17;;
36377;SDS011;22402;42.746;23.606;2023-05-21T06:57:16;8.60;;;4.70;;
36377;SDS011;22402;42.746;23.606;2023-05-21T06:59:42;11.97;;;6.07;;
36377;SDS011;22402;42.746;23.606;2023-05-21T07:02:07;10.80;;;5.27;;
36377;SDS011;22402;42.746;23.606;2023-05-21T07:04:33;7.77;;;4.83;;
36377;SDS011;22402;42.746;23.606;2023-05-21T07:06:59;8.30;;;4.37;;
36377;SDS011;22402;42.746;23.606;2023-05-21T07:09:25;5.53;;;3.53;;
36377;SDS011;22402;42.746;23.606;2023-05-21T07:11:50;10.87;;;5.40;;
36377;SDS011;22402;42.746;23.606;2023-05-21T07:14:17;7.70;;;4.53;;
36377;SDS011;22402;42.746;23.606;2023-05-21T07:16:42;8.97;;;4.37;;
36377;SDS011;22402;42.746;23.606;2023-05-21T07:19:08;6.77;;;3.33;;
36377;SDS011;22402;42.746;23.606;2023-05-21T07:21:35;10.23;;;7.03;;
36377;SDS011;22402;42.746;23.606;2023-05-21T07:24:00;6.37;;;4.57;;
36377;SDS011;22402;42.746;23.606;2023-05-21T07:26:26;5.67;;;4.30;;
36377;SDS011;22402;42.746;23.606;2023-05-21T07:28:51;11.20;;;4.17;;
36377;SDS011;22402;42.746;23.606;2023-05-21T07:31:16;5.67;;;3.77;;
36377;SDS011;22402;42.746;23.606;2023-05-21T07:33:42;8.40;;;4.33;;
36377;SDS011;22402;42.746;23.606;2023-05-21T07:36:08;4.77;;;3.70;;
36377;SDS011;22402;42.746;23.606;2023-05-21T07:38:33;8.30;;;4.50;;
36377;SDS011;22402;42.746;23.606;2023-05-21T07:40:59;15.87;;;4.43;;
36377;SDS011;22402;42.746;23.606;2023-05-21T07:43:24;6.63;;;3.97;;
36377;SDS011;22402;42.746;23.606;2023-05-21T07:45:50;8.50;;;3.90;;
36377;SDS011;22402;42.746;23.606;2023-05-21T07:48:17;5.57;;;3.87;;
36377;SDS011;22402;42.746;23.606;2023-05-21T07:50:43;5.90;;;4.00;;
36377;SDS011;22402;42.746;23.606;2023-05-21T07:53:09;6.70;;;4.07;;
36377;SDS011;22402;42.746;23.606;2023-05-21T07:55:34;16.83;;;4.10;;
36377;SDS011;22402;42.746;23.606;2023-05-21T07:58:00;7.07;;;3.60;;
36377;SDS011;22402;42.746;23.606;2023-05-21T08:00:25;7.07;;;3.67;;
36377;SDS011;22402;42.746;23.606;2023-05-21T08:02:51;6.67;;;4.00;;
36377;SDS011;22402;42.746;23.606;2023-05-21T08:05:17;11.93;;;6.30;;
36377;SDS011;22402;42.746;23.606;2023-05-21T08:07:42;9.87;;;4.77;;
36377;SDS011;22402;42.746;23.606;2023-05-21T08:10:08;6.57;;;4.03;;
36377;SDS011;22402;42.746;23.606;2023-05-21T08:12:34;14.70;;;4.83;;
36377;SDS011;22402;42.746;23.606;2023-05-21T08:14:59;6.30;;;4.20;;
36377;SDS011;22402;42.746;23.606;2023-05-21T08:17:25;8.53;;;3.93;;
36377;SDS011;22402;42.746;23.606;2023-05-21T08:19:52;7.50;;;4.33;;
36377;SDS011;22402;42.746;23.606;2023-05-21T08:22:17;5.77;;;3.70;;
36377;SDS011;22402;42.746;23.606;2023-05-21T08:24:43;6.10;;;3.93;;
36377;SDS011;22402;42.746;23.606;2023-05-21T08:27:09;9.87;;;4.07;;
36377;SDS011;22402;42.746;23.606;2023-05-21T08:29:34;4.23;;;3.03;;
36377;SDS011;22402;42.746;23.606;2023-05-21T08:32:00;5.50;;;3.60;;
36377;SDS011;22402;42.746;23.606;2023-05-21T08:34:25;11.80;;;3.20;;
36377;SDS011;22402;42.746;23.606;2023-05-21T08:36:51;4.50;;;3.40;;
36377;SDS011;22402;42.746;23.606;2023-05-21T08:39:17;10.43;;;3.13;;
36377;SDS011;22402;42.746;23.606;2023-05-21T08:41:43;7.90;;;3.37;;
36377;SDS011;22402;42.746;23.606;2023-05-21T08:44:14;6.40;;;3.17;;
36377;SDS011;22402;42.746;23.606;2023-05-21T08:46:44;3.90;;;3.50;;
36377;SDS011;22402;42.746;23.606;2023-05-21T08:49:13;6.07;;;2.93;;
36377;SDS011;22402;42.746;23.606;2023-05-21T08:51:43;4.73;;;3.20;;
36377;SDS011;22402;42.746;23.606;2023-05-21T08:54:09;6.00;;;2.80;;
36377;SDS011;22402;42.746;23.606;2023-05-21T08:56:35;5.87;;;3.60;;
36377;SDS011;22402;42.746;23.606;2023-05-21T08:59:04;7.27;;;3.27;;
36377;SDS011;22402;42.746;23.606;2023-05-21T09:01:31;5.80;;;3.50;;
36377;SDS011;22402;42.746;23.606;2023-05-21T09:03:58;4.60;;;2.90;;
36377;SDS011;22402;42.746;23.606;2023-05-21T09:06:25;3.13;;;2.80;;
36377;SDS011;22402;42.746;23.606;2023-05-21T09:08:58;3.47;;;2.93;;
36377;SDS011;22402;42.746;23.606;2023-05-21T09:11:30;4.10;;;3.37;;
36377;SDS011;22402;42.746;23.606;2023-05-21T09:13:56;6.97;;;3.80;;
36377;SDS011;22402;42.746;23.606;2023-05-21T09:16:23;6.73;;;4.00;;
36377;SDS011;22402;42.746;23.606;2023-05-21T09:18:48;3.50;;;2.90;;
36377;SDS011;22402;42.746;23.606;2023-05-21T09:21:26;7.60;;;3.10;;
36377;SDS011;22402;42.746;23.606;2023-05-21T09:23:56;6.07;;;3.00;;
36377;SDS011;22402;42.746;23.606;2023-05-21T09:26:23;4.87;;;3.17;;
36377;SDS011;22402;42.746;23.606;2023-05-21T09:28:56;6.03;;;2.73;;
36377;SDS011;22402;42.746;23.606;2023-05-21T09:31:23;5.93;;;3.07;;
36377;SDS011;22402;42.746;23.606;2023-05-21T09:33:49;5.80;;;3.40;;
36377;SDS011;22402;42.746;23.606;2023-05-21T09:36:18;4.17;;;2.77;;
36377;SDS011;22402;42.746;23.606;2023-05-21T09:38:44;7.03;;;3.50;;
36377;SDS011;22402;42.746;23.606;2023-05-21T09:41:12;6.87;;;2.67;;
36377;SDS011;22402;42.746;23.606;2023-05-21T09:43:40;3.23;;;2.20;;
36377;SDS011;22402;42.746;23.606;2023-05-21T09:46:07;6.10;;;2.97;;
36377;SDS011;22402;42.746;23.606;2023-05-21T09:48:33;4.30;;;2.47;;
36377;SDS011;22402;42.746;23.606;2023-05-21T09:51:10;3.90;;;2.20;;
36377;SDS011;22402;42.746;23.606;2023-05-21T09:56:25;3.00;;;2.70;;
36377;SDS011;22402;42.746;23.606;2023-05-21T09:58:53;5.70;;;3.13;;
36377;SDS011;22402;42.746;23.606;2023-05-21T10:01:20;6.30;;;3.50;;
36377;SDS011;22402;42.746;23.606;2023-05-21T10:03:54;6.37;;;3.53;;
36377;SDS011;22402;42.746;23.606;2023-05-21T10:06:22;4.27;;;3.10;;
36377;SDS011;22402;42.746;23.606;2023-05-21T10:08:50;4.93;;;3.00;;
36377;SDS011;22402;42.746;23.606;2023-05-21T10:11:20;5.80;;;2.40;;
36377;SDS011;22402;42.746;23.606;2023-05-21T10:13:54;4.63;;;2.77;;
36377;SDS011;22402;42.746;23.606;2023-05-21T10:16:24;9.17;;;3.40;;
36377;SDS011;22402;42.746;23.606;2023-05-21T10:18:50;7.63;;;4.07;;
36377;SDS011;22402;42.746;23.606;2023-05-21T10:21:18;9.43;;;4.00;;
36377;SDS011;22402;42.746;23.606;2023-05-21T10:23:45;7.33;;;3.80;;
36377;SDS011;22402;42.746;23.606;2023-05-21T10:26:11;14.97;;;4.10;;
36377;SDS011;22402;42.746;23.606;2023-05-21T10:28:38;6.37;;;4.23;;
36377;SDS011;22402;42.746;23.606;2023-05-21T10:31:04;6.07;;;3.93;;
36377;SDS011;22402;42.746;23.606;2023-05-21T10:33:30;7.50;;;3.90;;
36377;SDS011;22402;42.746;23.606;2023-05-21T10:35:58;7.90;;;3.67;;
36377;SDS011;22402;42.746;23.606;2023-05-21T10:38:24;8.40;;;3.63;;
36377;SDS011;22402;42.746;23.606;2023-05-21T10:40:51;5.87;;;3.63;;
36377;SDS011;22402;42.746;23.606;2023-05-21T10:51:19;8.80;;;4.37;;
36377;SDS011;22402;42.746;23.606;2023-05-21T10:56:47;3.40;;;2.97;;
36377;SDS011;22402;42.746;23.606;2023-05-21T10:59:39;6.40;;;2.93;;
36377;SDS011;22402;42.746;23.606;2023-05-21T11:02:06;7.37;;;3.37;;
36377;SDS011;22402;42.746;23.606;2023-05-21T11:04:33;3.07;;;2.60;;
36377;SDS011;22402;42.746;23.606;2023-05-21T11:07:03;4.50;;;3.30;;
36377;SDS011;22402;42.746;23.606;2023-05-21T11:09:29;6.00;;;2.77;;
36377;SDS011;22402;42.746;23.606;2023-05-21T11:11:58;9.27;;;4.17;;
36377;SDS011;22402;42.746;23.606;2023-05-21T11:14:35;7.03;;;3.73;;
36377;SDS011;22402;42.746;23.606;2023-05-21T11:22:06;5.63;;;2.93;;
36377;SDS011;22402;42.746;23.606;2023-05-21T11:24:37;5.80;;;2.90;;
36377;SDS011;22402;42.746;23.606;2023-05-21T11:27:05;4.17;;;3.00;;
36377;SDS011;22402;42.746;23.606;2023-05-21T11:29:33;4.93;;;2.90;;
36377;SDS011;22402;42.746;23.606;2023-05-21T11:32:04;3.47;;;3.07;;
36377;SDS011;22402;42.746;23.606;2023-05-21T11:34:37;6.30;;;3.33;;
36377;SDS011;22402;42.746;23.606;2023-05-21T11:39:47;12.13;;;3.90;;
36377;SDS011;22402;42.746;23.606;2023-05-21T11:42:32;5.63;;;3.20;;
36377;SDS011;22402;42.746;23.606;2023-05-21T11:45:02;5.80;;;3.30;;
36377;SDS011;22402;42.746;23.606;2023-05-21T11:47:28;7.47;;;3.93;;
36377;SDS011;22402;42.746;23.606;2023-05-21T11:49:57;9.67;;;3.90;;
36377;SDS011;22402;42.746;23.606;2023-05-21T11:52:23;8.07;;;3.80;;
36377;SDS011;22402;42.746;23.606;2023-05-21T11:54:50;5.37;;;4.27;;
36377;SDS011;22402;42.746;23.606;2023-05-21T11:57:19;10.80;;;4.23;;
36377;SDS011;22402;42.746;23.606;2023-05-21T11:59:45;5.97;;;3.90;;
36377;SDS011;22402;42.746;23.606;2023-05-21T12:02:15;4.80;;;3.63;;
36377;SDS011;22402;42.746;23.606;2023-05-21T12:04:42;14.83;;;7.83;;
36377;SDS011;22402;42.746;23.606;2023-05-21T12:07:09;8.90;;;6.07;;
36377;SDS011;22402;42.746;23.606;2023-05-21T12:09:44;9.07;;;4.87;;
36377;SDS011;22402;42.746;23.606;2023-05-21T12:14:50;10.30;;;4.53;;
36377;SDS011;22402;42.746;23.606;2023-05-21T12:17:17;9.33;;;4.10;;
36377;SDS011;22402;42.746;23.606;2023-05-21T12:22:21;4.07;;;3.67;;
36377;SDS011;22402;42.746;23.606;2023-05-21T12:30:35;5.13;;;3.30;;
36377;SDS011;22402;42.746;23.606;2023-05-21T12:33:01;6.50;;;3.70;;
36377;SDS011;22402;42.746;23.606;2023-05-21T12:35:28;6.07;;;3.70;;
36377;SDS011;22402;42.746;23.606;2023-05-21T12:37:55;6.30;;;3.57;;
36377;SDS011;22402;42.746;23.606;2023-05-21T12:40:20;6.03;;;3.33;;
36377;SDS011;22402;42.746;23.606;2023-05-21T12:42:46;4.30;;;2.80;;
36377;SDS011;22402;42.746;23.606;2023-05-21T12:45:12;7.30;;;4.20;;
36377;SDS011;22402;42.746;23.606;2023-05-21T12:47:41;5.33;;;3.63;;
36377;SDS011;22402;42.746;23.606;2023-05-21T12:50:13;7.83;;;3.70;;
36377;SDS011;22402;42.746;23.606;2023-05-21T12:52:43;7.17;;;3.23;;
36377;SDS011;22402;42.746;23.606;2023-05-21T12:55:11;3.70;;;3.20;;
36377;SDS011;22402;42.746;23.606;2023-05-21T13:05:07;5.40;;;4.40;;
36377;SDS011;22402;42.746;23.606;2023-05-21T13:07:35;8.97;;;4.07;;
36377;SDS011;22402;42.746;23.606;2023-05-21T13:10:03;8.10;;;4.77;;
36377;SDS011;22402;42.746;23.606;2023-05-21T13:12:30;9.20;;;4.27;;
36377;SDS011;22402;42.746;23.606;2023-05-21T13:14:57;5.77;;;4.43;;
36377;SDS011;22402;42.746;23.606;2023-05-21T13:17:27;5.13;;;3.60;;
36377;SDS011;22402;42.746;23.606;2023-05-21T13:20:06;7.67;;;4.50;;
36377;SDS011;22402;42.746;23.606;2023-05-21T13:22:38;9.87;;;4.50;;
36377;SDS011;22402;42.746;23.606;2023-05-21T13:25:06;6.43;;;3.77;;
36377;SDS011;22402;42.746;23.606;2023-05-21T13:27:33;6.90;;;4.30;;
36377;SDS011;22402;42.746;23.606;2023-05-21T13:29:59;8.90;;;4.17;;
36377;SDS011;22402;42.746;23.606;2023-05-21T13:32:25;5.40;;;4.27;;
36377;SDS011;22402;42.746;23.606;2023-05-21T13:34:51;5.73;;;4.33;;
36377;SDS011;22402;42.746;23.606;2023-05-21T13:37:16;5.07;;;4.07;;
36377;SDS011;22402;42.746;23.606;2023-05-21T13:39:44;5.60;;;4.33;;
36377;SDS011;22402;42.746;23.606;2023-05-21T13:42:09;5.33;;;3.80;;
36377;SDS011;22402;42.746;23.606;2023-05-21T13:44:35;5.43;;;3.67;;
36377;SDS011;22402;42.746;23.606;2023-05-21T13:47:04;9.20;;;3.87;;
36377;SDS011;22402;42.746;23.606;2023-05-21T13:49:30;7.30;;;4.20;;
36377;SDS011;22402;42.746;23.606;2023-05-21T13:51:56;5.83;;;5.00;;
36377;SDS011;22402;42.746;23.606;2023-05-21T13:54:24;11.30;;;3.90;;
36377;SDS011;22402;42.746;23.606;2023-05-21T13:56:49;7.73;;;4.10;;
36377;SDS011;22402;42.746;23.606;2023-05-21T13:59:15;5.23;;;4.07;;
36377;SDS011;22402;42.746;23.606;2023-05-21T14:01:40;9.47;;;4.37;;
36377;SDS011;22402;42.746;23.606;2023-05-21T14:04:08;12.37;;;5.03;;
36377;SDS011;22402;42.746;23.606;2023-05-21T14:06:34;7.40;;;4.13;;
36377;SDS011;22402;42.746;23.606;2023-05-21T14:09:00;11.10;;;3.90;;
36377;SDS011;22402;42.746;23.606;2023-05-21T14:11:26;5.60;;;4.40;;
36377;SDS011;22402;42.746;23.606;2023-05-21T14:13:52;6.97;;;4.57;;
36377;SDS011;22402;42.746;23.606;2023-05-21T14:16:18;8.60;;;4.53;;
36377;SDS011;22402;42.746;23.606;2023-05-21T14:18:43;5.83;;;4.30;;
36377;SDS011;22402;42.746;23.606;2023-05-21T14:21:09;6.53;;;4.50;;
36377;SDS011;22402;42.746;23.606;2023-05-21T14:23:34;7.33;;;5.40;;
36377;SDS011;22402;42.746;23.606;2023-05-21T14:26:00;13.50;;;5.60;;
36377;SDS011;22402;42.746;23.606;2023-05-21T14:28:25;9.20;;;5.70;;
36377;SDS011;22402;42.746;23.606;2023-05-21T14:30:51;8.50;;;6.30;;
36377;SDS011;22402;42.746;23.606;2023-05-21T14:33:16;11.20;;;5.70;;
36377;SDS011;22402;42.746;23.606;2023-05-21T14:35:42;6.80;;;5.00;;
36377;SDS011;22402;42.746;23.606;2023-05-21T14:38:08;9.13;;;4.80;;
36377;SDS011;22402;42.746;23.606;2023-05-21T14:40:34;7.97;;;4.87;;
36377;SDS011;22402;42.746;23.606;2023-05-21T14:43:01;9.43;;;5.20;;
36377;SDS011;22402;42.746;23.606;2023-05-21T14:45:27;6.80;;;4.90;;
36377;SDS011;22402;42.746;23.606;2023-05-21T14:47:52;9.50;;;5.60;;
36377;SDS011;22402;42.746;23.606;2023-05-21T14:50:18;9.93;;;6.20;;
36377;SDS011;22402;42.746;23.606;2023-05-21T14:52:44;7.50;;;5.90;;
36377;SDS011;22402;42.746;23.606;2023-05-21T14:55:10;12.57;;;6.70;;
36377;SDS011;22402;42.746;23.606;2023-05-21T14:57:36;12.80;;;6.40;;
36377;SDS011;22402;42.746;23.606;2023-05-21T15:00:02;8.43;;;6.20;;
36377;SDS011;22402;42.746;23.606;2023-05-21T15:02:29;11.77;;;6.60;;
36377;SDS011;22402;42.746;23.606;2023-05-21T15:04:55;8.03;;;5.87;;
36377;SDS011;22402;42.746;23.606;2023-05-21T15:07:20;7.80;;;4.93;;
36377;SDS011;22402;42.746;23.606;2023-05-21T15:09:46;7.97;;;5.13;;
36377;SDS011;22402;42.746;23.606;2023-05-21T15:12:11;6.53;;;5.27;;
36377;SDS011;22402;42.746;23.606;2023-05-21T15:14:37;7.30;;;5.23;;
36377;SDS011;22402;42.746;23.606;2023-05-21T15:17:02;7.60;;;5.63;;
36377;SDS011;22402;42.746;23.606;2023-05-21T15:19:28;7.80;;;5.60;;